Time;durP1;ratioP1;P1;durP2;ratioP2;P2;SDS_P1;SDS_P2;PMS_P1;PMS_P2;Temp;Humidity;BMP_temperature;BMP_pressure;BME280_temperature;BME280_humidity;BME280_pressure;Samples;Min_cycle;Max_cycle;Signal;HPM_P1;HPM_P2
2021/10/25 00:01:59;;;;;;;31.40;17.83;;;6.80;99.90;;;;;;5094904;28;20540;-58
2021/10/25 00:04:25;;;;;;;25.60;15.40;;;6.90;99.90;;;;;;5094956;28;20032;-58
2021/10/25 00:06:51;;;;;;;21.98;13.98;;;6.90;99.90;;;;;;5095023;28;20021;-57
2021/10/25 00:09:17;;;;;;;22.00;13.85;;;6.90;99.90;;;;;;5094480;28;20520;-56
2021/10/25 00:11:43;;;;;;;22.83;15.18;;;6.90;99.90;;;;;;5094673;28;20039;-57
2021/10/25 00:14:10;;;;;;;23.75;15.60;;;6.90;99.90;;;;;;5094826;28;20028;-57
2021/10/25 00:16:36;;;;;;;24.25;16.58;;;7.00;99.90;;;;;;5094853;28;20035;-58
2021/10/25 00:19:03;;;;;;;26.58;17.88;;;6.90;99.90;;;;;;5094828;28;20020;-57
2021/10/25 00:21:28;;;;;;;25.25;18.30;;;6.90;99.90;;;;;;5094655;28;20020;-56
2021/10/25 00:23:54;;;;;;;29.10;19.20;;;7.00;99.90;;;;;;5094739;28;20494;-57
2021/10/25 00:26:20;;;;;;;26.27;20.27;;;7.00;99.90;;;;;;5094579;28;20023;-57
2021/10/25 00:28:45;;;;;;;25.08;17.73;;;7.00;99.90;;;;;;5094717;28;20391;-56
2021/10/25 00:31:12;;;;;;;27.95;18.75;;;7.00;99.90;;;;;;5094521;28;20034;-57
2021/10/25 00:33:37;;;;;;;24.98;17.67;;;7.00;99.90;;;;;;5094690;28;20030;-57
2021/10/25 00:36:03;;;;;;;26.50;18.55;;;7.00;99.90;;;;;;5094369;28;20032;-57
2021/10/25 00:38:29;;;;;;;25.50;18.77;;;7.00;99.90;;;;;;5041899;28;20032;-57
2021/10/25 00:40:55;;;;;;;26.95;17.80;;;7.10;99.90;;;;;;5094353;28;20050;-57
2021/10/25 00:43:20;;;;;;;24.83;16.73;;;7.10;99.90;;;;;;5094335;28;20208;-58
2021/10/25 00:45:46;;;;;;;29.58;20.27;;;6.90;99.90;;;;;;5094083;28;20467;-57
2021/10/25 00:48:12;;;;;;;29.30;18.15;;;6.70;99.90;;;;;;5075282;28;20044;-57
2021/10/25 00:50:39;;;;;;;28.45;19.05;;;6.60;99.90;;;;;;5093987;28;20467;-58
2021/10/25 00:53:06;;;;;;;32.17;22.30;;;6.70;99.90;;;;;;5094179;28;20391;-59
2021/10/25 00:55:33;;;;;;;28.20;19.27;;;6.40;99.90;;;;;;5041948;28;20044;-57
2021/10/25 00:57:59;;;;;;;23.65;16.20;;;6.40;99.90;;;;;;5094014;28;20047;-58
2021/10/25 01:00:25;;;;;;;22.98;15.85;;;6.00;99.90;;;;;;5093941;28;20491;-57
2021/10/25 01:02:51;;;;;;;23.08;15.73;;;6.10;99.90;;;;;;5093970;28;20032;-57
2021/10/25 01:05:16;;;;;;;19.33;14.38;;;6.20;99.90;;;;;;5093760;28;20028;-58
2021/10/25 01:07:43;;;;;;;23.90;14.65;;;6.30;99.90;;;;;;5041606;28;20032;-58
2021/10/25 01:10:09;;;;;;;20.35;13.52;;;6.20;99.90;;;;;;5093786;28;20111;-57
2021/10/25 01:12:35;;;;;;;21.20;13.23;;;6.10;99.90;;;;;;5093630;28;20449;-56
2021/10/25 01:15:01;;;;;;;19.65;12.20;;;5.90;99.90;;;;;;5093716;28;20589;-56
2021/10/25 01:17:27;;;;;;;20.20;10.90;;;5.50;99.90;;;;;;5093448;28;20024;-57
2021/10/25 01:19:55;;;;;;;12.70;9.75;;;5.00;99.90;;;;;;5092725;28;20040;-57
2021/10/25 01:22:22;;;;;;;15.18;10.75;;;4.40;99.90;;;;;;5092216;28;20429;-57
2021/10/25 01:24:50;;;;;;;17.92;11.18;;;3.90;99.90;;;;;;5093071;28;20035;-57
2021/10/25 01:27:17;;;;;;;16.08;11.40;;;3.70;99.90;;;;;;5093545;28;20024;-56
2021/10/25 01:29:43;;;;;;;16.25;11.27;;;3.90;99.90;;;;;;5093311;28;20020;-57
2021/10/25 01:32:09;;;;;;;15.55;10.45;;;4.00;99.90;;;;;;5093395;28;20031;-57
2021/10/25 01:34:35;;;;;;;15.75;10.73;;;4.00;99.90;;;;;;5093309;28;20020;-57
2021/10/25 01:37:03;;;;;;;14.32;9.65;;;3.90;99.90;;;;;;5093187;28;20372;-56
2021/10/25 01:39:29;;;;;;;15.57;9.57;;;4.20;99.90;;;;;;5093258;28;20035;-57
2021/10/25 01:41:55;;;;;;;17.83;10.27;;;4.30;99.90;;;;;;5093176;28;20016;-56
2021/10/25 01:44:21;;;;;;;13.85;9.07;;;4.40;99.90;;;;;;5093041;28;20063;-57
2021/10/25 01:46:48;;;;;;;13.93;9.73;;;4.40;99.90;;;;;;5073845;28;20087;-57
2021/10/25 01:49:15;;;;;;;13.23;9.05;;;4.50;99.90;;;;;;5093217;28;20539;-57
2021/10/25 01:51:41;;;;;;;15.15;10.10;;;4.60;99.90;;;;;;5092972;28;20039;-56
2021/10/25 01:54:08;;;;;;;13.77;11.07;;;4.70;99.90;;;;;;5093107;28;20024;-57
2021/10/25 01:56:37;;;;;;;15.25;9.27;;;4.80;99.90;;;;;;5092823;28;20064;-57
2021/10/25 01:59:03;;;;;;;15.57;9.50;;;4.60;99.90;;;;;;5093074;28;20054;-57
2021/10/25 02:01:29;;;;;;;12.98;8.73;;;4.20;99.90;;;;;;5092851;28;20024;-56
2021/10/25 02:03:55;;;;;;;13.15;8.45;;;4.10;99.90;;;;;;5092826;28;20027;-57
2021/10/25 02:06:21;;;;;;;14.95;8.77;;;4.00;99.90;;;;;;5092778;28;20024;-56
2021/10/25 02:08:47;;;;;;;13.23;9.35;;;4.40;99.90;;;;;;5092680;28;20043;-57
2021/10/25 02:11:15;;;;;;;12.40;7.97;;;4.70;99.90;;;;;;5092803;28;20050;-57
2021/10/25 02:13:41;;;;;;;12.52;7.93;;;5.10;99.90;;;;;;5092687;28;20029;-57
2021/10/25 02:16:08;;;;;;;13.27;8.90;;;5.30;99.90;;;;;;5092698;28;20158;-56
2021/10/25 02:18:34;;;;;;;12.27;8.75;;;5.00;99.90;;;;;;5092620;28;20487;-57
2021/10/25 02:21:00;;;;;;;11.73;7.68;;;4.80;99.90;;;;;;5092549;28;20032;-57
2021/10/25 02:23:26;;;;;;;18.60;8.50;;;4.60;99.90;;;;;;5092487;28;20050;-57
2021/10/25 02:25:53;;;;;;;9.82;7.57;;;4.40;99.90;;;;;;5092448;28;20024;-57
2021/10/25 02:28:20;;;;;;;12.80;7.72;;;4.50;99.90;;;;;;5092493;28;20031;-56
2021/10/25 02:30:47;;;;;;;9.68;7.10;;;4.30;99.90;;;;;;5092202;28;20036;-57
2021/10/25 02:33:13;;;;;;;10.95;7.28;;;4.10;99.90;;;;;;5092576;28;20032;-56
2021/10/25 02:35:39;;;;;;;12.77;8.02;;;3.90;99.90;;;;;;5092384;28;20461;-56
2021/10/25 02:38:05;;;;;;;10.60;7.72;;;4.20;99.90;;;;;;5092259;28;20036;-57
2021/10/25 02:40:31;;;;;;;12.68;8.82;;;4.40;99.90;;;;;;5073483;28;20122;-57
2021/10/25 02:43:00;;;;;;;12.60;7.95;;;4.50;99.90;;;;;;5092368;28;20020;-56
2021/10/25 02:45:27;;;;;;;13.18;8.10;;;4.50;99.90;;;;;;5092264;28;20024;-57
2021/10/25 02:47:53;;;;;;;13.15;8.50;;;4.40;99.90;;;;;;5092059;28;20056;-56
2021/10/25 02:50:19;;;;;;;11.93;8.18;;;3.90;99.90;;;;;;5092195;28;20070;-56
2021/10/25 02:52:45;;;;;;;16.30;9.27;;;4.00;99.90;;;;;;5092179;28;20388;-57
2021/10/25 02:55:11;;;;;;;13.70;7.93;;;4.10;99.90;;;;;;5092210;28;20501;-56
2021/10/25 02:57:38;;;;;;;16.85;7.75;;;3.90;99.90;;;;;;5092261;28;20032;-56
2021/10/25 03:00:07;;;;;;;11.70;7.43;;;4.00;99.90;;;;;;5092103;28;20036;-57
2021/10/25 03:02:33;;;;;;;12.70;7.75;;;3.90;99.90;;;;;;5049386;28;20120;-56
2021/10/25 03:04:59;;;;;;;11.57;7.07;;;3.90;99.90;;;;;;5049471;28;20091;-57
2021/10/25 03:07:25;;;;;;;12.60;7.75;;;3.60;99.90;;;;;;5049579;28;20041;-56
2021/10/25 03:09:51;;;;;;;11.40;6.07;;;3.50;99.90;;;;;;5016319;28;20311;-57
2021/10/25 03:12:17;;;;;;;10.88;6.25;;;3.30;99.90;;;;;;5049537;28;20049;-57
2021/10/25 03:14:43;;;;;;;11.55;7.78;;;3.10;99.90;;;;;;5049112;28;20079;-57
2021/10/25 03:17:09;;;;;;;17.02;7.93;;;3.10;99.90;;;;;;5050690;28;20102;-57
2021/10/25 03:19:35;;;;;;;10.75;6.95;;;3.50;99.90;;;;;;5050821;28;20496;-56
2021/10/25 03:22:01;;;;;;;8.68;6.43;;;3.90;99.90;;;;;;5051079;28;20037;-56
2021/10/25 03:24:27;;;;;;;9.40;6.10;;;4.20;99.90;;;;;;5051176;28;20025;-57
2021/10/25 03:26:53;;;;;;;9.13;6.90;;;4.60;99.90;;;;;;5050995;28;20086;-56
2021/10/25 03:29:19;;;;;;;10.65;7.22;;;4.70;99.90;;;;;;4984988;28;20040;-56
2021/10/25 03:31:45;;;;;;;13.27;7.47;;;4.60;99.90;;;;;;5001004;28;20083;-57
2021/10/25 03:34:10;;;;;;;12.38;6.85;;;4.60;99.90;;;;;;5082826;28;20040;-57
2021/10/25 03:36:38;;;;;;;9.57;7.13;;;4.70;99.90;;;;;;5092884;28;20123;-57
2021/10/25 03:39:05;;;;;;;12.48;7.22;;;4.90;99.90;;;;;;5093029;28;20036;-57
2021/10/25 03:41:35;;;;;;;9.57;7.05;;;5.00;99.90;;;;;;5093102;28;20040;-57
2021/10/25 03:44:17;;;;;;;10.02;6.88;;;5.20;99.90;;;;;;5028389;28;20487;-57
2021/10/25 03:49:40;;;;;;;14.05;9.48;;;5.30;99.90;;;;;;5076232;28;19926;-58
2021/10/25 03:52:15;;;;;;;19.45;12.45;;;5.30;99.90;;;;;;5076209;28;20028;-57
2021/10/25 03:55:00;;;;;;;16.02;10.60;;;5.40;99.90;;;;;;5076365;28;20078;-57
2021/10/25 04:29:29;;;;;;;24.25;13.93;;;4.00;99.90;;;;;;5075657;28;20043;-56
2021/10/25 04:31:55;;;;;;;30.33;15.52;;;4.00;99.90;;;;;;5075608;28;20472;-58
2021/10/25 04:34:20;;;;;;;30.15;15.13;;;4.00;99.90;;;;;;5075329;28;20055;-56
2021/10/25 04:36:47;;;;;;;30.15;16.90;;;4.10;99.90;;;;;;5075253;28;20072;-57
2021/10/25 04:39:13;;;;;;;28.23;16.17;;;4.30;99.90;;;;;;5075266;28;20174;-57
2021/10/25 04:41:40;;;;;;;39.00;24.90;;;4.40;99.90;;;;;;5075459;28;20434;-57
2021/10/25 04:44:07;;;;;;;28.55;17.85;;;4.30;99.90;;;;;;5075356;28;20048;-57
2021/10/25 04:46:33;;;;;;;32.70;19.38;;;4.30;99.90;;;;;;5084149;28;20056;-57
2021/10/25 04:48:59;;;;;;;23.95;15.65;;;4.60;99.90;;;;;;5095329;28;20078;-57
2021/10/25 04:51:25;;;;;;;17.73;12.32;;;4.80;99.90;;;;;;5076867;28;20028;-57
2021/10/25 04:53:51;;;;;;;17.17;11.85;;;4.50;99.90;;;;;;5095174;28;20040;-57
2021/10/25 04:56:17;;;;;;;20.40;13.05;;;4.30;99.90;;;;;;5095449;28;20026;-57
2021/10/25 04:58:42;;;;;;;17.58;12.38;;;4.10;99.90;;;;;;5095112;28;20383;-57
2021/10/25 05:01:08;;;;;;;22.63;13.35;;;4.10;99.90;;;;;;5095472;28;20081;-57
2021/10/25 05:03:36;;;;;;;21.45;14.38;;;3.80;99.90;;;;;;5095189;28;20028;-57
2021/10/25 05:06:07;;;;;;;25.60;15.25;;;3.80;99.90;;;;;;5095025;28;20024;-58
2021/10/25 05:08:32;;;;;;;22.05;14.77;;;3.60;99.90;;;;;;5091542;28;20036;-57
2021/10/25 05:10:58;;;;;;;26.92;15.82;;;3.60;99.90;;;;;;5076713;28;20028;-57
2021/10/25 05:13:24;;;;;;;31.48;19.50;;;3.80;99.90;;;;;;5074916;28;20029;-57
2021/10/25 05:15:49;;;;;;;37.35;22.27;;;4.20;99.90;;;;;;5074004;28;20040;-56
2021/10/25 05:18:15;;;;;;;32.58;22.05;;;4.40;99.90;;;;;;5074286;28;20032;-56
2021/10/25 05:20:41;;;;;;;35.65;23.45;;;4.60;99.90;;;;;;5057576;28;20037;-57
2021/10/25 05:23:08;;;;;;;31.17;19.02;;;4.60;99.90;;;;;;5092651;28;20024;-56
2021/10/25 05:25:34;;;;;;;32.17;17.23;;;4.40;99.90;;;;;;5059282;28;20032;-57
2021/10/25 05:28:00;;;;;;;29.42;16.95;;;4.10;99.90;;;;;;5095073;28;20437;-57
2021/10/25 05:30:26;;;;;;;34.88;17.00;;;4.00;99.90;;;;;;5094636;28;20032;-57
2021/10/25 05:32:51;;;;;;;28.50;16.90;;;4.30;99.90;;;;;;5094772;28;20107;-56
2021/10/25 05:35:18;;;;;;;27.13;14.98;;;4.20;99.90;;;;;;5094559;28;20024;-57
2021/10/25 05:37:44;;;;;;;31.25;15.68;;;4.30;99.90;;;;;;5094758;28;20032;-57
2021/10/25 05:40:10;;;;;;;32.20;16.80;;;4.40;99.90;;;;;;5073088;28;20434;-57
2021/10/25 05:42:36;;;;;;;28.30;16.52;;;4.30;99.90;;;;;;5086567;28;20035;-57
2021/10/25 05:45:04;;;;;;;23.60;14.88;;;4.80;99.90;;;;;;5074675;28;20067;-57
2021/10/25 05:47:30;;;;;;;39.10;24.35;;;5.40;99.90;;;;;;5073631;28;20102;-57
2021/10/25 05:49:55;;;;;;;35.55;20.58;;;5.70;99.90;;;;;;5073896;28;20025;-57
2021/10/25 05:52:21;;;;;;;39.08;19.25;;;6.30;99.90;;;;;;5078673;28;20059;-57
2021/10/25 05:54:48;;;;;;;39.72;19.15;;;6.60;99.90;;;;;;5093127;28;20060;-57
2021/10/25 05:57:16;;;;;;;29.15;18.75;;;6.90;99.90;;;;;;5073671;28;20391;-56
2021/10/25 05:59:42;;;;;;;39.88;20.90;;;7.30;99.90;;;;;;5074695;28;20071;-57
2021/10/25 06:04:46;;;;;;;28.55;18.90;;;8.10;99.90;;;;;;5094008;28;20036;-56
2021/10/25 06:07:11;;;;;;;32.83;20.05;;;8.40;99.90;;;;;;5093544;28;20028;-56
2021/10/25 06:09:37;;;;;;;28.75;19.67;;;9.30;99.90;;;;;;5093932;28;20024;-57
2021/10/25 06:12:15;;;;;;;31.80;20.40;;;11.00;99.90;;;;;;5075053;28;20395;-56
2021/10/25 06:14:43;;;;;;;29.88;18.42;;;12.50;99.90;;;;;;5093668;28;20467;-56
2021/10/25 06:20:01;;;;;;;26.90;19.08;;;15.90;96.70;;;;;;5070725;28;20181;-57
2021/10/25 06:22:29;;;;;;;26.58;19.50;;;17.40;93.70;;;;;;5090575;28;20115;-57
2021/10/25 06:24:55;;;;;;;32.17;23.13;;;18.40;90.20;;;;;;5022940;28;20400;-56
2021/10/25 06:27:21;;;;;;;35.15;24.30;;;19.10;89.50;;;;;;5073660;28;20023;-56
2021/10/25 06:29:46;;;;;;;41.38;27.48;;;19.90;83.90;;;;;;5073519;28;20036;-56
2021/10/25 06:32:13;;;;;;;36.42;27.38;;;19.40;79.80;;;;;;5073375;28;20029;-57
2021/10/25 06:34:41;;;;;;;35.13;24.58;;;20.60;78.90;;;;;;5073198;28;20035;-57
2021/10/25 06:37:07;;;;;;;27.92;21.23;;;21.20;77.00;;;;;;5073358;28;20434;-57
2021/10/25 06:39:40;;;;;;;30.80;21.75;;;;;;;;;;5054858;28;20033;-56
2021/10/25 06:42:07;;;;;;;27.40;20.33;;;22.80;83.30;;;;;;5073256;28;20060;-56
2021/10/25 06:47:12;;;;;;;23.95;19.55;;;;;;;;;;5073147;28;20530;-57
2021/10/25 06:49:38;;;;;;;23.85;18.60;;;23.60;68.40;;;;;;5073340;28;20025;-56
2021/10/25 06:52:04;;;;;;;25.05;17.73;;;22.90;68.20;;;;;;5073308;28;20401;-57
2021/10/25 06:54:32;;;;;;;21.15;16.40;;;21.90;70.50;;;;;;5072699;28;20035;-57
2021/10/25 06:56:58;;;;;;;29.98;19.45;;;23.20;68.40;;;;;;5057810;28;20036;-52
2021/10/25 06:59:24;;;;;;;27.27;19.13;;;;;;;;;;5093173;28;20077;-53
2021/10/25 07:01:50;;;;;;;28.65;19.52;;;23.60;68.00;;;;;;5088525;28;20028;-53
2021/10/25 07:04:16;;;;;;;34.42;24.25;;;23.90;66.90;;;;;;5081167;28;20080;-54
2021/10/25 07:06:42;;;;;;;30.27;21.27;;;22.30;67.70;;;;;;5081892;28;20537;-53
2021/10/25 07:09:09;;;;;;;25.42;21.42;;;22.40;67.70;;;;;;5083108;28;20028;-53
2021/10/25 07:11:38;;;;;;;27.45;20.85;;;;;;;;;;5085421;28;20024;-53
2021/10/25 07:14:06;;;;;;;27.30;19.20;;;23.60;67.00;;;;;;5049153;28;20052;-53
2021/10/25 07:16:38;;;;;;;24.75;19.88;;;23.50;66.10;;;;;;5079229;28;20045;-53
2021/10/25 08:00:55;;;;;;;17.90;14.40;;;23.00;65.70;;;;;;5086014;28;20066;-55
2021/10/25 08:03:24;;;;;;;13.40;12.00;;;21.90;66.90;;;;;;5082793;28;20488;-55
2021/10/25 08:06:09;;;;;;;16.17;13.07;;;21.30;68.60;;;;;;5087734;28;20032;-54
2021/10/25 08:08:52;;;;;;;16.08;14.40;;;20.80;69.30;;;;;;5090884;28;20491;-53
2021/10/25 08:11:18;;;;;;;14.85;13.23;;;21.70;68.80;;;;;;5088714;28;20028;-53
2021/10/25 08:13:46;;;;;;;18.48;14.27;;;21.40;67.60;;;;;;5090242;28;20035;-54
2021/10/25 08:21:20;;;;;;;15.88;13.23;;;23.00;67.10;;;;;;5037253;28;20032;-55
2021/10/25 08:23:49;;;;;;;13.98;11.30;;;23.20;67.10;;;;;;5090165;28;20067;-54
2021/10/25 08:26:15;;;;;;;42.38;39.58;;;23.80;66.80;;;;;;5087125;28;20036;-53
2021/10/25 08:28:41;;;;;;;18.73;15.75;;;22.70;65.00;;;;;;5090041;28;20031;-54
2021/10/25 08:31:17;;;;;;;15.55;13.80;;;22.40;66.70;;;;;;5072021;28;20032;-54
2021/10/25 08:34:01;;;;;;;14.13;12.73;;;22.60;67.70;;;;;;5052543;28;20036;-54
2021/10/25 08:39:46;;;;;;;16.40;14.15;;;21.60;67.10;;;;;;5038639;28;20044;-54
2021/10/25 08:41:58;;;;;;;15.82;14.13;;;22.60;68.90;;;;;;5066454;28;20134;-54
2021/10/25 08:44:24;;;;;;;14.32;12.82;;;22.90;65.70;;;;;;5067353;28;20116;-54
2021/10/25 08:46:54;;;;;;;14.82;11.63;;;23.10;66.30;;;;;;5045589;28;20136;-54
2021/10/25 08:49:20;;;;;;;16.85;14.57;;;21.30;67.00;;;;;;5060098;28;20399;-54
2021/10/25 08:51:46;;;;;;;21.75;19.77;;;20.10;69.30;;;;;;5066800;28;20056;-53
2021/10/25 08:54:12;;;;;;;17.77;14.75;;;;;;;;;;5067054;28;20025;-54
2021/10/25 08:56:39;;;;;;;19.73;14.63;;;20.30;77.70;;;;;;5069881;28;20049;-53
2021/10/25 08:59:05;;;;;;;15.45;13.07;;;20.20;79.20;;;;;;5066406;28;20033;-54
2021/10/25 09:01:32;;;;;;;15.45;13.70;;;21.10;68.80;;;;;;5052247;28;20612;-54
2021/10/25 09:04:13;;;;;;;13.38;11.98;;;20.40;69.60;;;;;;5051394;28;20040;-54
2021/10/25 09:06:54;;;;;;;17.00;15.18;;;21.20;69.70;;;;;;5037797;28;20060;-54
2021/10/25 09:09:20;;;;;;;18.42;16.83;;;20.70;69.00;;;;;;5083356;28;20025;-55
2021/10/25 09:12:08;;;;;;;18.02;15.20;;;20.20;69.50;;;;;;5058925;28;20154;-54
2021/10/25 09:14:37;;;;;;;17.55;15.50;;;20.70;70.20;;;;;;5093203;28;20024;-54
2021/10/25 09:17:06;;;;;;;16.73;14.43;;;21.40;69.20;;;;;;5088962;28;20392;-53
2021/10/25 09:19:36;;;;;;;20.92;16.70;;;20.80;69.30;;;;;;5083166;28;20477;-55
2021/10/25 09:22:10;;;;;;;23.25;21.73;;;20.70;70.50;;;;;;5091482;28;20055;-55
2021/10/25 09:24:37;;;;;;;20.63;18.80;;;20.10;70.90;;;;;;5089672;28;20036;-54
2021/10/25 09:27:06;;;;;;;24.83;22.83;;;21.20;69.90;;;;;;5088923;28;20111;-54
2021/10/25 09:29:34;;;;;;;26.98;24.90;;;20.80;69.80;;;;;;5085197;28;20037;-54
2021/10/25 09:32:14;;;;;;;23.05;20.95;;;21.00;70.30;;;;;;5087215;28;20043;-54
2021/10/25 09:34:49;;;;;;;19.65;17.77;;;19.60;71.50;;;;;;5089831;28;20102;-54
2021/10/25 09:37:21;;;;;;;26.65;24.42;;;19.20;73.80;;;;;;5092421;28;20036;-55
2021/10/25 09:39:52;;;;;;;18.02;16.33;;;19.80;72.90;;;;;;5088991;28;20028;-54
2021/10/25 09:50:57;;;;;;;16.08;13.27;;;22.40;70.90;;;;;;5092187;28;20391;-54
2021/10/25 09:53:37;;;;;;;37.08;34.75;;;22.50;70.80;;;;;;5090803;28;20074;-52
2021/10/25 09:56:07;;;;;;;16.85;15.35;;;21.20;70.80;;;;;;5087691;28;20044;-52
2021/10/25 09:58:45;;;;;;;23.73;21.77;;;21.20;71.50;;;;;;5087101;28;20034;-54
2021/10/25 10:01:13;;;;;;;46.92;44.33;;;20.80;71.60;;;;;;5090674;28;20502;-53
2021/10/25 10:03:38;;;;;;;31.55;29.38;;;20.80;71.30;;;;;;5089693;28;20028;-51
2021/10/25 10:06:04;;;;;;;25.50;23.65;;;20.30;72.70;;;;;;5090667;28;20104;-57
2021/10/25 10:08:30;;;;;;;25.80;24.23;;;19.90;72.50;;;;;;5087258;28;20027;-56
2021/10/25 10:10:56;;;;;;;23.33;21.42;;;20.70;71.90;;;;;;5087577;28;20530;-57
2021/10/25 10:13:23;;;;;;;18.65;16.95;;;20.40;71.70;;;;;;5049548;28;20479;-55
2021/10/25 10:15:53;;;;;;;23.05;21.45;;;20.40;71.50;;;;;;5038693;28;20039;-55
2021/10/25 10:18:23;;;;;;;14.82;13.30;;;19.80;73.00;;;;;;5082200;28;20038;-53
2021/10/25 10:20:56;;;;;;;28.48;26.50;;;19.70;73.90;;;;;;5085591;28;21492;-56
2021/10/25 10:23:23;;;;;;;20.50;18.15;;;19.40;73.80;;;;;;5087915;28;20042;-57
2021/10/25 10:26:00;;;;;;;19.98;18.77;;;20.30;73.00;;;;;;5090166;28;20027;-57
2021/10/25 10:28:44;;;;;;;31.73;30.02;;;19.90;73.50;;;;;;5085989;28;20087;-55
2021/10/25 10:31:16;;;;;;;24.75;22.88;;;19.10;73.40;;;;;;5087078;28;20171;-54
2021/10/25 10:33:44;;;;;;;;;;;18.90;74.50;;;;;;5075012;28;20122;-55
2021/10/25 10:36:17;;;;;;;19.63;17.75;;;18.70;75.40;;;;;;5088369;28;19908;-52
2021/10/25 10:39:10;;;;;;;13.40;10.85;;;19.50;74.10;;;;;;5084981;28;20468;-55
2021/10/25 10:41:45;;;;;;;16.13;13.48;;;19.70;76.00;;;;;;4988915;28;20035;-54
2021/10/25 10:44:16;;;;;;;22.42;20.92;;;19.70;75.20;;;;;;4984278;28;20035;-55
2021/10/25 10:46:56;;;;;;;16.67;15.43;;;19.50;73.70;;;;;;4985611;28;20053;-53
2021/10/25 10:49:27;;;;;;;12.60;11.52;;;19.70;74.10;;;;;;4984632;28;20113;-54
2021/10/25 10:57:43;;;;;;;24.98;23.33;;;21.10;72.40;;;;;;4987870;28;20223;-56
2021/10/25 11:00:11;;;;;;;9.55;8.00;;;21.00;72.50;;;;;;4992321;28;20049;-55
2021/10/25 11:02:47;;;;;;;13.43;12.13;;;21.10;72.70;;;;;;4980367;28;20031;-54
2021/10/25 11:05:13;;;;;;;10.93;9.82;;;21.20;72.10;;;;;;4988967;28;20093;-52
2021/10/25 11:07:40;;;;;;;12.60;10.90;;;21.70;72.00;;;;;;4986856;28;20038;-56
2021/10/25 11:10:09;;;;;;;14.40;13.18;;;21.80;71.50;;;;;;4992863;28;20045;-56
2021/10/25 11:12:41;;;;;;;14.15;13.00;;;21.00;71.10;;;;;;4977519;28;20050;-51
2021/10/25 11:15:10;;;;;;;12.93;11.65;;;20.60;72.80;;;;;;4991746;28;20093;-54
2021/10/25 11:17:36;;;;;;;13.02;12.02;;;20.60;72.80;;;;;;4997605;28;20069;-54
2021/10/25 11:20:03;;;;;;;13.75;10.88;;;20.80;73.10;;;;;;5087581;28;20040;-56
2021/10/25 11:22:34;;;;;;;11.38;8.77;;;20.60;72.30;;;;;;5052737;28;20052;-51
2021/10/25 11:25:06;;;;;;;8.37;6.93;;;21.20;73.50;;;;;;5050132;28;20098;-53
2021/10/25 11:27:35;;;;;;;9.48;7.95;;;21.10;72.90;;;;;;5092004;28;20043;-57
2021/10/25 11:30:06;;;;;;;12.57;11.52;;;21.00;72.50;;;;;;5090177;28;20074;-50
2021/10/25 11:32:33;;;;;;;8.63;7.73;;;20.60;72.00;;;;;;5090914;28;20064;-52
2021/10/25 11:34:59;;;;;;;10.90;9.77;;;20.30;72.90;;;;;;5096120;28;20268;-54
2021/10/25 11:37:26;;;;;;;9.98;7.22;;;20.60;73.50;;;;;;5054702;28;20049;-54
2021/10/25 11:40:04;;;;;;;9.70;5.68;;;20.70;73.90;;;;;;5093856;28;20119;-54
2021/10/25 11:42:42;;;;;;;7.85;5.55;;;21.20;74.00;;;;;;5090463;28;20036;-52
2021/10/25 11:45:17;;;;;;;4.70;3.50;;;20.40;73.30;;;;;;5087119;28;20035;-56
2021/10/25 11:47:50;;;;;;;9.15;4.95;;;20.10;73.50;;;;;;5087919;28;20475;-54
2021/10/25 11:50:29;;;;;;;9.23;5.38;;;20.00;73.60;;;;;;5028316;28;20041;-54
2021/10/25 11:53:05;;;;;;;9.63;6.22;;;20.60;74.00;;;;;;5008379;28;20125;-52
2021/10/25 11:55:49;;;;;;;8.50;5.00;;;20.50;73.10;;;;;;5029767;28;20049;-55
2021/10/25 11:58:15;;;;;;;6.82;4.30;;;20.40;72.60;;;;;;5014028;28;20045;-58
2021/10/25 12:00:47;;;;;;;11.60;5.05;;;20.30;73.80;;;;;;5033107;28;20038;-52
2021/10/25 12:03:14;;;;;;;;;;;20.40;73.10;;;;;;4959057;28;20081;-49
2021/10/25 12:05:42;;;;;;;5.95;4.30;;;20.40;72.80;;;;;;5027357;28;19932;-50
2021/10/25 12:08:09;;;;;;;8.23;4.05;;;20.10;71.80;;;;;;5032706;28;20076;-53
2021/10/25 12:10:37;;;;;;;5.05;3.88;;;19.90;73.30;;;;;;5034257;28;20464;-52
2021/10/25 12:13:05;;;;;;;8.85;4.75;;;20.00;72.80;;;;;;5015150;28;20381;-52
2021/10/25 12:15:34;;;;;;;7.00;4.55;;;19.70;74.30;;;;;;5012027;28;20042;-50
2021/10/25 12:18:02;;;;;;;8.27;4.55;;;19.60;74.50;;;;;;4976788;28;20050;-51
2021/10/25 12:20:38;;;;;;;7.97;3.92;;;19.80;74.40;;;;;;5018518;28;20405;-51
2021/10/25 12:23:10;;;;;;;4.35;3.40;;;19.70;75.50;;;;;;5049334;28;20594;-52
2021/10/25 12:25:36;;;;;;;7.18;3.05;;;18.90;75.80;;;;;;5048797;28;20041;-50
2021/10/25 12:28:14;;;;;;;8.27;5.07;;;18.90;76.30;;;;;;5054697;28;20232;-49
2021/10/25 12:30:41;;;;;;;8.00;4.72;;;19.40;76.80;;;;;;5055007;28;20056;-51
2021/10/25 12:33:06;;;;;;;6.38;4.43;;;19.50;76.20;;;;;;5054249;28;20032;-53
2021/10/25 12:35:35;;;;;;;6.45;2.80;;;19.60;76.20;;;;;;5005082;28;20114;-49
2021/10/25 12:38:03;;;;;;;11.50;5.70;;;19.40;76.10;;;;;;5054246;28;20072;-51
2021/10/25 12:40:38;;;;;;;7.25;4.38;;;19.70;77.00;;;;;;5001637;28;20167;-51
2021/10/25 12:43:04;;;;;;;7.93;4.68;;;19.80;75.00;;;;;;5050548;28;20117;-48
2021/10/25 12:45:37;;;;;;;6.85;3.67;;;19.80;75.80;;;;;;5037645;28;20517;-50
2021/10/25 12:48:03;;;;;;;8.65;4.38;;;19.60;75.70;;;;;;5093912;28;20051;-51
2021/10/25 12:50:37;;;;;;;6.43;3.03;;;19.70;76.30;;;;;;5094783;28;20024;-50
2021/10/25 12:53:06;;;;;;;8.55;3.72;;;19.50;75.60;;;;;;5094421;28;20027;-52
2021/10/25 12:55:32;;;;;;;7.55;4.15;;;19.30;76.50;;;;;;5058626;28;20040;-49
2021/10/25 12:57:58;;;;;;;7.38;3.45;;;19.20;76.90;;;;;;5092169;28;20056;-49
2021/10/25 13:00:24;;;;;;;9.93;6.47;;;19.30;76.50;;;;;;5092840;28;20105;-50
2021/10/25 13:02:53;;;;;;;6.75;4.00;;;19.50;76.00;;;;;;5094898;28;20024;-52
2021/10/25 13:05:20;;;;;;;7.30;5.18;;;19.30;75.90;;;;;;5094037;28;20032;-51
2021/10/25 13:07:56;;;;;;;7.05;3.83;;;19.50;75.80;;;;;;5072829;28;20126;-52
2021/10/25 13:10:24;;;;;;;6.85;4.22;;;19.40;75.50;;;;;;5093928;28;20111;-50
2021/10/25 13:12:51;;;;;;;7.45;3.65;;;19.20;75.50;;;;;;5057374;28;20502;-47
2021/10/25 13:15:17;;;;;;;6.13;4.00;;;19.10;75.70;;;;;;5093911;28;20056;-47
2021/10/25 13:17:43;;;;;;;7.75;3.72;;;19.20;76.00;;;;;;5058724;28;20048;-52
2021/10/25 13:20:11;;;;;;;6.43;4.10;;;19.10;76.70;;;;;;5093786;28;20020;-50
2021/10/25 13:22:37;;;;;;;14.38;4.47;;;18.90;76.40;;;;;;5090482;28;20032;-50
2021/10/25 13:25:03;;;;;;;8.45;5.85;;;18.90;76.50;;;;;;5094347;28;20031;-52
2021/10/25 13:27:29;;;;;;;5.25;3.35;;;19.20;76.30;;;;;;5040680;28;20040;-50
2021/10/25 13:29:55;;;;;;;7.95;4.03;;;19.00;75.70;;;;;;5093365;28;20081;-49
2021/10/25 13:32:21;;;;;;;6.60;3.92;;;19.10;76.10;;;;;;5042466;28;20130;-52
2021/10/25 13:34:48;;;;;;;5.90;3.72;;;19.20;76.20;;;;;;5043888;28;20107;-50
2021/10/25 13:37:14;;;;;;;8.10;3.75;;;19.20;76.10;;;;;;5093345;28;20064;-49
2021/10/25 13:39:40;;;;;;;9.32;3.97;;;19.20;76.00;;;;;;5092589;28;20380;-47
2021/10/25 13:42:06;;;;;;;4.70;3.80;;;19.50;76.10;;;;;;5093445;28;20020;-48
2021/10/25 13:44:32;;;;;;;5.63;3.83;;;19.50;75.70;;;;;;5043732;28;20040;-50
2021/10/25 13:46:57;;;;;;;6.32;3.33;;;19.50;75.40;;;;;;5059516;28;20095;-47
2021/10/25 13:49:24;;;;;;;5.18;3.50;;;19.60;75.20;;;;;;5093069;28;20053;-51
2021/10/25 13:51:51;;;;;;;6.03;3.95;;;19.50;76.40;;;;;;5092920;28;20028;-48
2021/10/25 13:54:16;;;;;;;4.53;3.28;;;19.20;75.70;;;;;;5092835;28;20028;-48
2021/10/25 13:56:42;;;;;;;4.72;3.83;;;18.90;76.50;;;;;;5092728;28;20040;-48
2021/10/25 13:59:08;;;;;;;8.65;4.55;;;18.50;77.30;;;;;;5092978;28;20035;-48
2021/10/25 14:01:34;;;;;;;9.60;3.97;;;18.80;77.50;;;;;;5093576;28;20032;-53
2021/10/25 14:04:01;;;;;;;6.85;4.32;;;18.70;76.70;;;;;;5022975;28;20028;-49
2021/10/25 14:06:29;;;;;;;10.50;6.30;;;18.70;76.80;;;;;;5092573;28;20065;-53
2021/10/25 14:08:55;;;;;;;12.05;6.13;;;18.60;76.60;;;;;;5043056;28;20036;-46
2021/10/25 14:11:24;;;;;;;6.38;3.40;;;18.70;76.60;;;;;;5092782;28;20028;-48
2021/10/25 14:18:47;;;;;;;6.78;4.00;;;18.40;76.80;;;;;;5091412;28;20266;-51
2021/10/25 14:21:16;;;;;;;5.53;2.67;;;18.40;76.60;;;;;;5089428;28;20533;-51
2021/10/25 14:23:43;;;;;;;6.75;3.90;;;18.10;76.60;;;;;;5043549;28;20505;-51
2021/10/25 14:26:08;;;;;;;6.13;4.65;;;18.10;77.00;;;;;;5092402;28;20094;-48
2021/10/25 14:28:34;;;;;;;6.10;4.45;;;18.40;77.60;;;;;;5092179;28;20068;-51
2021/10/25 14:31:00;;;;;;;10.50;5.00;;;18.20;77.30;;;;;;5028509;28;20059;-50
2021/10/25 14:33:27;;;;;;;6.97;3.40;;;18.10;77.00;;;;;;5005768;28;20032;-48
2021/10/25 14:35:53;;;;;;;6.45;3.65;;;18.10;77.00;;;;;;5091646;28;20065;-48
2021/10/25 14:38:39;;;;;;;10.15;4.50;;;18.00;76.70;;;;;;5054419;28;20044;-51